sensor_id;sensor_type;location;lat;lon;timestamp;P1;durP1;ratioP1;P2;durP2;ratioP2
20179;SDS011;10249;48.900;9.090;2022-07-29T00:01:23;6.17;;;5.97;;
20179;SDS011;10249;48.900;9.090;2022-07-29T00:03:50;6.10;;;5.90;;
20179;SDS011;10249;48.900;9.090;2022-07-29T00:06:17;6.10;;;5.90;;
20179;SDS011;10249;48.900;9.090;2022-07-29T00:08:44;6.30;;;6.10;;
20179;SDS011;10249;48.900;9.090;2022-07-29T00:11:10;6.27;;;6.07;;
20179;SDS011;10249;48.900;9.090;2022-07-29T00:13:37;6.60;;;6.40;;
20179;SDS011;10249;48.900;9.090;2022-07-29T00:16:05;6.50;;;6.30;;
20179;SDS011;10249;48.900;9.090;2022-07-29T00:18:32;6.60;;;6.40;;
20179;SDS011;10249;48.900;9.090;2022-07-29T00:20:59;6.20;;;6.00;;
20179;SDS011;10249;48.900;9.090;2022-07-29T00:23:26;6.30;;;6.10;;
20179;SDS011;10249;48.900;9.090;2022-07-29T00:25:52;6.37;;;6.17;;
20179;SDS011;10249;48.900;9.090;2022-07-29T00:28:19;6.20;;;6.00;;
20179;SDS011;10249;48.900;9.090;2022-07-29T00:30:46;5.53;;;5.33;;
20179;SDS011;10249;48.900;9.090;2022-07-29T00:33:14;5.70;;;5.50;;
20179;SDS011;10249;48.900;9.090;2022-07-29T00:35:41;5.87;;;5.67;;
20179;SDS011;10249;48.900;9.090;2022-07-29T00:38:09;5.80;;;5.60;;
20179;SDS011;10249;48.900;9.090;2022-07-29T00:40:36;5.47;;;5.27;;
20179;SDS011;10249;48.900;9.090;2022-07-29T00:43:03;5.30;;;5.20;;
20179;SDS011;10249;48.900;9.090;2022-07-29T00:45:30;5.10;;;5.00;;
20179;SDS011;10249;48.900;9.090;2022-07-29T00:47:57;5.10;;;5.00;;
20179;SDS011;10249;48.900;9.090;2022-07-29T00:50:25;5.90;;;5.70;;
20179;SDS011;10249;48.900;9.090;2022-07-29T00:52:52;6.20;;;6.00;;
20179;SDS011;10249;48.900;9.090;2022-07-29T00:55:20;6.10;;;5.90;;
20179;SDS011;10249;48.900;9.090;2022-07-29T00:57:46;6.17;;;5.97;;
20179;SDS011;10249;48.900;9.090;2022-07-29T01:00:14;5.60;;;5.40;;
20179;SDS011;10249;48.900;9.090;2022-07-29T01:02:43;5.70;;;5.50;;
20179;SDS011;10249;48.900;9.090;2022-07-29T01:05:13;5.30;;;5.20;;
20179;SDS011;10249;48.900;9.090;2022-07-29T01:07:42;5.10;;;5.00;;
20179;SDS011;10249;48.900;9.090;2022-07-29T01:10:10;4.70;;;4.60;;
20179;SDS011;10249;48.900;9.090;2022-07-29T01:12:39;4.40;;;4.30;;
20179;SDS011;10249;48.900;9.090;2022-07-29T01:15:09;4.27;;;4.17;;
20179;SDS011;10249;48.900;9.090;2022-07-29T01:17:39;4.13;;;4.03;;
20179;SDS011;10249;48.900;9.090;2022-07-29T01:20:10;4.50;;;4.40;;
20179;SDS011;10249;48.900;9.090;2022-07-29T01:22:50;4.60;;;4.50;;
20179;SDS011;10249;48.900;9.090;2022-07-29T01:28:36;4.50;;;4.40;;
20179;SDS011;10249;48.900;9.090;2022-07-29T01:31:10;4.53;;;4.43;;
20179;SDS011;10249;48.900;9.090;2022-07-29T01:33:41;4.40;;;4.30;;
20179;SDS011;10249;48.900;9.090;2022-07-29T01:36:17;4.72;;;4.63;;
20179;SDS011;10249;48.900;9.090;2022-07-29T01:38:49;4.70;;;4.60;;
20179;SDS011;10249;48.900;9.090;2022-07-29T01:41:23;5.40;;;5.20;;
20179;SDS011;10249;48.900;9.090;2022-07-29T01:43:55;5.40;;;5.20;;
20179;SDS011;10249;48.900;9.090;2022-07-29T01:46:27;5.13;;;5.03;;
20179;SDS011;10249;48.900;9.090;2022-07-29T01:48:59;5.13;;;5.03;;
20179;SDS011;10249;48.900;9.090;2022-07-29T01:51:33;5.17;;;5.03;;
20179;SDS011;10249;48.900;9.090;2022-07-29T01:54:07;5.13;;;5.03;;
20179;SDS011;10249;48.900;9.090;2022-07-29T01:56:36;5.00;;;4.90;;
20179;SDS011;10249;48.900;9.090;2022-07-29T01:59:06;5.37;;;5.17;;
20179;SDS011;10249;48.900;9.090;2022-07-29T02:01:34;5.00;;;4.90;;
20179;SDS011;10249;48.900;9.090;2022-07-29T02:04:03;5.20;;;5.10;;
20179;SDS011;10249;48.900;9.090;2022-07-29T02:06:33;5.10;;;5.00;;
20179;SDS011;10249;48.900;9.090;2022-07-29T02:09:02;5.20;;;5.10;;
20179;SDS011;10249;48.900;9.090;2022-07-29T02:11:31;5.30;;;5.10;;
20179;SDS011;10249;48.900;9.090;2022-07-29T02:14:00;5.20;;;5.10;;
20179;SDS011;10249;48.900;9.090;2022-07-29T02:16:31;5.27;;;5.10;;
20179;SDS011;10249;48.900;9.090;2022-07-29T02:19:00;5.13;;;5.00;;
20179;SDS011;10249;48.900;9.090;2022-07-29T02:21:28;4.10;;;4.00;;
20179;SDS011;10249;48.900;9.090;2022-07-29T02:23:59;4.30;;;4.20;;
20179;SDS011;10249;48.900;9.090;2022-07-29T02:26:27;4.40;;;4.30;;
20179;SDS011;10249;48.900;9.090;2022-07-29T02:28:57;4.50;;;4.40;;
20179;SDS011;10249;48.900;9.090;2022-07-29T02:31:25;4.10;;;4.00;;
20179;SDS011;10249;48.900;9.090;2022-07-29T02:33:57;4.00;;;3.90;;
20179;SDS011;10249;48.900;9.090;2022-07-29T02:36:25;3.90;;;3.80;;
20179;SDS011;10249;48.900;9.090;2022-07-29T02:38:53;3.60;;;3.50;;
20179;SDS011;10249;48.900;9.090;2022-07-29T02:41:23;3.50;;;3.40;;
20179;SDS011;10249;48.900;9.090;2022-07-29T02:43:53;3.60;;;3.50;;
20179;SDS011;10249;48.900;9.090;2022-07-29T02:46:24;3.73;;;3.63;;
20179;SDS011;10249;48.900;9.090;2022-07-29T02:48:57;3.60;;;3.50;;
20179;SDS011;10249;48.900;9.090;2022-07-29T02:51:28;3.47;;;3.37;;
20179;SDS011;10249;48.900;9.090;2022-07-29T02:53:58;3.60;;;3.50;;
20179;SDS011;10249;48.900;9.090;2022-07-29T02:56:31;3.20;;;3.10;;
20179;SDS011;10249;48.900;9.090;2022-07-29T02:59:01;3.80;;;3.70;;
20179;SDS011;10249;48.900;9.090;2022-07-29T03:01:32;3.70;;;3.60;;
20179;SDS011;10249;48.900;9.090;2022-07-29T03:04:03;3.90;;;3.80;;
20179;SDS011;10249;48.900;9.090;2022-07-29T03:06:31;3.90;;;3.80;;
20179;SDS011;10249;48.900;9.090;2022-07-29T03:09:00;3.80;;;3.70;;
20179;SDS011;10249;48.900;9.090;2022-07-29T03:11:27;3.70;;;3.60;;
20179;SDS011;10249;48.900;9.090;2022-07-29T03:13:55;3.80;;;3.70;;
20179;SDS011;10249;48.900;9.090;2022-07-29T03:16:22;3.90;;;3.80;;
20179;SDS011;10249;48.900;9.090;2022-07-29T03:18:50;3.90;;;3.80;;
20179;SDS011;10249;48.900;9.090;2022-07-29T03:21:19;3.80;;;3.70;;
20179;SDS011;10249;48.900;9.090;2022-07-29T03:23:46;3.70;;;3.60;;
20179;SDS011;10249;48.900;9.090;2022-07-29T03:26:13;3.70;;;3.60;;
20179;SDS011;10249;48.900;9.090;2022-07-29T03:28:39;3.60;;;3.50;;
20179;SDS011;10249;48.900;9.090;2022-07-29T03:31:06;3.60;;;3.50;;
20179;SDS011;10249;48.900;9.090;2022-07-29T03:33:33;3.40;;;3.30;;
20179;SDS011;10249;48.900;9.090;2022-07-29T03:36:00;4.37;;;4.07;;
20179;SDS011;10249;48.900;9.090;2022-07-29T03:38:29;3.53;;;3.43;;
20179;SDS011;10249;48.900;9.090;2022-07-29T03:41:00;3.77;;;3.67;;
20179;SDS011;10249;48.900;9.090;2022-07-29T03:43:30;3.60;;;3.50;;
20179;SDS011;10249;48.900;9.090;2022-07-29T03:46:00;3.50;;;3.40;;
20179;SDS011;10249;48.900;9.090;2022-07-29T03:48:28;3.30;;;3.20;;
20179;SDS011;10249;48.900;9.090;2022-07-29T03:50:58;3.60;;;3.50;;
20179;SDS011;10249;48.900;9.090;2022-07-29T03:53:26;3.43;;;3.33;;
20179;SDS011;10249;48.900;9.090;2022-07-29T03:55:54;3.40;;;3.30;;
20179;SDS011;10249;48.900;9.090;2022-07-29T03:58:25;3.50;;;3.40;;
20179;SDS011;10249;48.900;9.090;2022-07-29T04:00:53;3.70;;;3.60;;
20179;SDS011;10249;48.900;9.090;2022-07-29T04:03:21;3.90;;;3.80;;
20179;SDS011;10249;48.900;9.090;2022-07-29T04:05:57;4.00;;;3.90;;
20179;SDS011;10249;48.900;9.090;2022-07-29T04:08:25;3.80;;;3.70;;
20179;SDS011;10249;48.900;9.090;2022-07-29T04:10:52;4.07;;;3.97;;
20179;SDS011;10249;48.900;9.090;2022-07-29T04:13:20;4.00;;;3.90;;
20179;SDS011;10249;48.900;9.090;2022-07-29T04:15:47;4.30;;;4.20;;
20179;SDS011;10249;48.900;9.090;2022-07-29T04:18:13;4.10;;;4.00;;
20179;SDS011;10249;48.900;9.090;2022-07-29T04:20:40;4.20;;;4.10;;
20179;SDS011;10249;48.900;9.090;2022-07-29T04:23:07;4.30;;;4.20;;
20179;SDS011;10249;48.900;9.090;2022-07-29T04:25:36;4.40;;;4.30;;
20179;SDS011;10249;48.900;9.090;2022-07-29T04:28:03;4.43;;;4.33;;
20179;SDS011;10249;48.900;9.090;2022-07-29T04:30:32;4.50;;;4.40;;
20179;SDS011;10249;48.900;9.090;2022-07-29T04:32:59;4.33;;;4.23;;
20179;SDS011;10249;48.900;9.090;2022-07-29T04:35:26;4.40;;;4.30;;
20179;SDS011;10249;48.900;9.090;2022-07-29T04:37:53;4.60;;;4.50;;
20179;SDS011;10249;48.900;9.090;2022-07-29T04:40:20;4.70;;;4.60;;
20179;SDS011;10249;48.900;9.090;2022-07-29T04:42:47;4.80;;;4.70;;
20179;SDS011;10249;48.900;9.090;2022-07-29T04:45:14;4.70;;;4.60;;
20179;SDS011;10249;48.900;9.090;2022-07-29T04:47:42;4.77;;;4.67;;
20179;SDS011;10249;48.900;9.090;2022-07-29T04:50:08;5.00;;;4.90;;
20179;SDS011;10249;48.900;9.090;2022-07-29T04:52:35;4.90;;;4.80;;
20179;SDS011;10249;48.900;9.090;2022-07-29T04:55:02;5.00;;;4.90;;
20179;SDS011;10249;48.900;9.090;2022-07-29T04:57:30;5.00;;;4.90;;
20179;SDS011;10249;48.900;9.090;2022-07-29T04:59:57;5.50;;;5.30;;
20179;SDS011;10249;48.900;9.090;2022-07-29T05:02:24;5.47;;;5.27;;
20179;SDS011;10249;48.900;9.090;2022-07-29T05:04:52;5.50;;;5.30;;
20179;SDS011;10249;48.900;9.090;2022-07-29T05:07:19;5.90;;;5.70;;
20179;SDS011;10249;48.900;9.090;2022-07-29T05:09:45;5.90;;;5.70;;
20179;SDS011;10249;48.900;9.090;2022-07-29T05:12:12;6.40;;;6.20;;
20179;SDS011;10249;48.900;9.090;2022-07-29T05:14:39;6.70;;;6.50;;
20179;SDS011;10249;48.900;9.090;2022-07-29T05:17:05;6.63;;;6.43;;
20179;SDS011;10249;48.900;9.090;2022-07-29T05:19:32;6.80;;;6.60;;
20179;SDS011;10249;48.900;9.090;2022-07-29T05:22:00;6.80;;;6.60;;
20179;SDS011;10249;48.900;9.090;2022-07-29T05:24:27;7.27;;;7.07;;
20179;SDS011;10249;48.900;9.090;2022-07-29T05:26:54;7.70;;;7.50;;
20179;SDS011;10249;48.900;9.090;2022-07-29T05:29:20;7.70;;;7.50;;
20179;SDS011;10249;48.900;9.090;2022-07-29T05:31:47;7.90;;;7.70;;
20179;SDS011;10249;48.900;9.090;2022-07-29T05:34:14;8.37;;;8.07;;
20179;SDS011;10249;48.900;9.090;2022-07-29T05:36:40;8.40;;;8.10;;
20179;SDS011;10249;48.900;9.090;2022-07-29T05:39:09;8.70;;;8.40;;
20179;SDS011;10249;48.900;9.090;2022-07-29T05:41:35;9.30;;;9.00;;
20179;SDS011;10249;48.900;9.090;2022-07-29T05:44:02;9.70;;;9.40;;
20179;SDS011;10249;48.900;9.090;2022-07-29T05:46:29;9.20;;;8.90;;
20179;SDS011;10249;48.900;9.090;2022-07-29T05:48:56;9.20;;;8.90;;
20179;SDS011;10249;48.900;9.090;2022-07-29T05:51:22;9.40;;;9.10;;
20179;SDS011;10249;48.900;9.090;2022-07-29T05:53:49;10.70;;;10.30;;
20179;SDS011;10249;48.900;9.090;2022-07-29T05:56:17;9.60;;;9.30;;
20179;SDS011;10249;48.900;9.090;2022-07-29T05:58:44;10.10;;;9.70;;
20179;SDS011;10249;48.900;9.090;2022-07-29T06:01:10;9.63;;;9.33;;
20179;SDS011;10249;48.900;9.090;2022-07-29T06:03:37;9.40;;;9.10;;
20179;SDS011;10249;48.900;9.090;2022-07-29T06:06:06;9.70;;;9.40;;
20179;SDS011;10249;48.900;9.090;2022-07-29T06:08:33;9.40;;;9.10;;
20179;SDS011;10249;48.900;9.090;2022-07-29T06:11:01;9.27;;;8.97;;
20179;SDS011;10249;48.900;9.090;2022-07-29T06:13:29;9.50;;;9.20;;
20179;SDS011;10249;48.900;9.090;2022-07-29T06:15:56;9.90;;;9.60;;
20179;SDS011;10249;48.900;9.090;2022-07-29T06:18:23;9.90;;;9.60;;
20179;SDS011;10249;48.900;9.090;2022-07-29T06:20:50;9.87;;;9.57;;
20179;SDS011;10249;48.900;9.090;2022-07-29T06:23:17;10.00;;;9.70;;
20179;SDS011;10249;48.900;9.090;2022-07-29T06:25:44;10.20;;;9.90;;
20179;SDS011;10249;48.900;9.090;2022-07-29T06:28:11;11.17;;;10.77;;
20179;SDS011;10249;48.900;9.090;2022-07-29T06:30:39;10.17;;;9.80;;
20179;SDS011;10249;48.900;9.090;2022-07-29T06:33:06;10.27;;;9.93;;
20179;SDS011;10249;48.900;9.090;2022-07-29T06:35:33;10.20;;;9.80;;
20179;SDS011;10249;48.900;9.090;2022-07-29T06:38:01;10.10;;;9.80;;
20179;SDS011;10249;48.900;9.090;2022-07-29T06:40:28;10.47;;;10.07;;
20179;SDS011;10249;48.900;9.090;2022-07-29T06:43:12;10.47;;;10.07;;
20179;SDS011;10249;48.900;9.090;2022-07-29T06:45:40;10.40;;;10.00;;
20179;SDS011;10249;48.900;9.090;2022-07-29T06:48:07;11.17;;;10.77;;
20179;SDS011;10249;48.900;9.090;2022-07-29T06:50:34;10.40;;;10.00;;
20179;SDS011;10249;48.900;9.090;2022-07-29T06:53:01;10.50;;;10.10;;
20179;SDS011;10249;48.900;9.090;2022-07-29T06:55:28;10.90;;;10.50;;
20179;SDS011;10249;48.900;9.090;2022-07-29T06:57:55;10.90;;;10.50;;
20179;SDS011;10249;48.900;9.090;2022-07-29T07:00:21;10.90;;;10.50;;
20179;SDS011;10249;48.900;9.090;2022-07-29T07:02:49;11.00;;;10.60;;
20179;SDS011;10249;48.900;9.090;2022-07-29T07:05:16;10.70;;;10.30;;
20179;SDS011;10249;48.900;9.090;2022-07-29T07:07:43;10.60;;;10.20;;
20179;SDS011;10249;48.900;9.090;2022-07-29T07:10:09;11.23;;;10.83;;
20179;SDS011;10249;48.900;9.090;2022-07-29T07:12:36;10.40;;;10.00;;
20179;SDS011;10249;48.900;9.090;2022-07-29T07:15:03;9.60;;;9.30;;
20179;SDS011;10249;48.900;9.090;2022-07-29T07:17:31;9.50;;;9.20;;
20179;SDS011;10249;48.900;9.090;2022-07-29T07:19:59;10.37;;;9.97;;
20179;SDS011;10249;48.900;9.090;2022-07-29T07:22:25;10.30;;;9.90;;
20179;SDS011;10249;48.900;9.090;2022-07-29T07:24:52;12.03;;;11.53;;
20179;SDS011;10249;48.900;9.090;2022-07-29T07:27:19;11.03;;;10.63;;
20179;SDS011;10249;48.900;9.090;2022-07-29T07:29:45;11.00;;;10.60;;
20179;SDS011;10249;48.900;9.090;2022-07-29T07:32:12;13.27;;;12.07;;
20179;SDS011;10249;48.900;9.090;2022-07-29T07:34:41;12.77;;;12.20;;
20179;SDS011;10249;48.900;9.090;2022-07-29T07:37:09;12.67;;;12.00;;
20179;SDS011;10249;48.900;9.090;2022-07-29T07:39:35;10.83;;;10.43;;
20179;SDS011;10249;48.900;9.090;2022-07-29T07:42:02;11.70;;;11.27;;
20179;SDS011;10249;48.900;9.090;2022-07-29T07:44:29;11.10;;;10.70;;
20179;SDS011;10249;48.900;9.090;2022-07-29T07:46:56;11.30;;;10.90;;
20179;SDS011;10249;48.900;9.090;2022-07-29T07:49:23;11.77;;;11.37;;
20179;SDS011;10249;48.900;9.090;2022-07-29T07:51:50;12.10;;;11.60;;
20179;SDS011;10249;48.900;9.090;2022-07-29T07:54:18;13.43;;;12.70;;
20179;SDS011;10249;48.900;9.090;2022-07-29T07:56:45;12.00;;;11.50;;
20179;SDS011;10249;48.900;9.090;2022-07-29T07:59:13;12.63;;;12.13;;
20179;SDS011;10249;48.900;9.090;2022-07-29T08:01:40;13.43;;;12.47;;
20179;SDS011;10249;48.900;9.090;2022-07-29T08:04:07;13.23;;;12.63;;
20179;SDS011;10249;48.900;9.090;2022-07-29T08:06:34;14.23;;;13.53;;
20179;SDS011;10249;48.900;9.090;2022-07-29T08:09:02;15.03;;;14.13;;
20179;SDS011;10249;48.900;9.090;2022-07-29T08:11:30;12.83;;;12.33;;
20179;SDS011;10249;48.900;9.090;2022-07-29T08:13:57;12.23;;;11.73;;
20179;SDS011;10249;48.900;9.090;2022-07-29T08:16:26;14.07;;;13.47;;
20179;SDS011;10249;48.900;9.090;2022-07-29T08:18:53;12.97;;;12.47;;
20179;SDS011;10249;48.900;9.090;2022-07-29T08:21:22;12.70;;;12.20;;
20179;SDS011;10249;48.900;9.090;2022-07-29T08:23:50;14.73;;;14.00;;
20179;SDS011;10249;48.900;9.090;2022-07-29T08:26:39;13.40;;;12.87;;
20179;SDS011;10249;48.900;9.090;2022-07-29T08:29:06;13.13;;;12.63;;
20179;SDS011;10249;48.900;9.090;2022-07-29T08:31:33;13.93;;;13.30;;
20179;SDS011;10249;48.900;9.090;2022-07-29T08:34:00;16.07;;;15.07;;
20179;SDS011;10249;48.900;9.090;2022-07-29T08:36:28;14.20;;;13.60;;
20179;SDS011;10249;48.900;9.090;2022-07-29T08:38:55;14.10;;;13.50;;
20179;SDS011;10249;48.900;9.090;2022-07-29T08:41:22;14.00;;;13.40;;
20179;SDS011;10249;48.900;9.090;2022-07-29T08:43:50;14.10;;;13.50;;
20179;SDS011;10249;48.900;9.090;2022-07-29T08:46:18;14.37;;;13.77;;
20179;SDS011;10249;48.900;9.090;2022-07-29T08:48:45;16.63;;;15.47;;
20179;SDS011;10249;48.900;9.090;2022-07-29T08:51:13;14.40;;;13.80;;
20179;SDS011;10249;48.900;9.090;2022-07-29T08:53:41;16.70;;;15.70;;
20179;SDS011;10249;48.900;9.090;2022-07-29T08:56:11;14.23;;;13.63;;
20179;SDS011;10249;48.900;9.090;2022-07-29T08:58:39;14.50;;;13.90;;
20179;SDS011;10249;48.900;9.090;2022-07-29T09:01:07;16.83;;;15.83;;
20179;SDS011;10249;48.900;9.090;2022-07-29T09:03:36;15.57;;;14.83;;
20179;SDS011;10249;48.900;9.090;2022-07-29T09:06:04;13.90;;;13.30;;
20179;SDS011;10249;48.900;9.090;2022-07-29T09:08:31;16.47;;;15.50;;
20179;SDS011;10249;48.900;9.090;2022-07-29T09:11:00;16.25;;;15.45;;
20179;SDS011;10249;48.900;9.090;2022-07-29T09:13:28;14.60;;;14.00;;
20179;SDS011;10249;48.900;9.090;2022-07-29T09:15:54;16.03;;;15.23;;
20179;SDS011;10249;48.900;9.090;2022-07-29T09:18:34;15.73;;;14.80;;
20179;SDS011;10249;48.900;9.090;2022-07-29T09:21:02;18.67;;;17.27;;
20179;SDS011;10249;48.900;9.090;2022-07-29T09:24:00;18.53;;;17.27;;
20179;SDS011;10249;48.900;9.090;2022-07-29T09:26:29;15.17;;;14.37;;
20179;SDS011;10249;48.900;9.090;2022-07-29T09:28:57;16.48;;;15.57;;
20179;SDS011;10249;48.900;9.090;2022-07-29T09:31:32;14.98;;;14.27;;
20179;SDS011;10249;48.900;9.090;2022-07-29T09:34:01;17.30;;;16.30;;
20179;SDS011;10249;48.900;9.090;2022-07-29T09:36:28;15.27;;;14.57;;
20179;SDS011;10249;48.900;9.090;2022-07-29T09:38:58;19.00;;;17.90;;
20179;SDS011;10249;48.900;9.090;2022-07-29T09:41:26;16.13;;;15.33;;
20179;SDS011;10249;48.900;9.090;2022-07-29T09:43:54;18.63;;;17.53;;
20179;SDS011;10249;48.900;9.090;2022-07-29T09:46:21;17.93;;;16.70;;
20179;SDS011;10249;48.900;9.090;2022-07-29T09:49:07;15.38;;;14.68;;
20179;SDS011;10249;48.900;9.090;2022-07-29T09:51:35;15.60;;;14.90;;
20179;SDS011;10249;48.900;9.090;2022-07-29T09:54:01;15.30;;;14.60;;
20179;SDS011;10249;48.900;9.090;2022-07-29T09:56:46;14.88;;;14.18;;
20179;SDS011;10249;48.900;9.090;2022-07-29T09:59:14;18.73;;;17.63;;
20179;SDS011;10249;48.900;9.090;2022-07-29T10:01:41;18.90;;;17.58;;
20179;SDS011;10249;48.900;9.090;2022-07-29T10:04:09;16.85;;;16.00;;
20179;SDS011;10249;48.900;9.090;2022-07-29T10:06:36;17.33;;;16.40;;
20179;SDS011;10249;48.900;9.090;2022-07-29T10:09:22;17.45;;;16.55;;
20179;SDS011;10249;48.900;9.090;2022-07-29T10:12:01;17.38;;;16.02;;
20179;SDS011;10249;48.900;9.090;2022-07-29T10:14:32;15.10;;;14.40;;
20179;SDS011;10249;48.900;9.090;2022-07-29T10:17:00;15.90;;;15.20;;
20179;SDS011;10249;48.900;9.090;2022-07-29T10:19:29;16.02;;;15.32;;
20179;SDS011;10249;48.900;9.090;2022-07-29T10:21:57;20.23;;;18.95;;
20179;SDS011;10249;48.900;9.090;2022-07-29T10:24:25;16.75;;;15.95;;
20179;SDS011;10249;48.900;9.090;2022-07-29T10:26:53;18.15;;;17.15;;
20179;SDS011;10249;48.900;9.090;2022-07-29T10:29:21;16.52;;;15.73;;
20179;SDS011;10249;48.900;9.090;2022-07-29T10:31:49;16.38;;;15.57;;
20179;SDS011;10249;48.900;9.090;2022-07-29T10:34:33;17.58;;;16.67;;
20179;SDS011;10249;48.900;9.090;2022-07-29T10:37:16;16.98;;;16.10;;
20179;SDS011;10249;48.900;9.090;2022-07-29T10:39:52;15.32;;;14.63;;
20179;SDS011;10249;48.900;9.090;2022-07-29T10:42:25;16.85;;;15.95;;
20179;SDS011;10249;48.900;9.090;2022-07-29T10:44:55;18.05;;;16.95;;
20179;SDS011;10249;48.900;9.090;2022-07-29T10:47:22;17.25;;;16.35;;
20179;SDS011;10249;48.900;9.090;2022-07-29T10:49:57;14.93;;;14.23;;
20179;SDS011;10249;48.900;9.090;2022-07-29T10:52:36;16.17;;;15.40;;
20179;SDS011;10249;48.900;9.090;2022-07-29T10:55:32;15.32;;;14.63;;
20179;SDS011;10249;48.900;9.090;2022-07-29T10:58:11;16.02;;;15.23;;
20179;SDS011;10249;48.900;9.090;2022-07-29T11:00:39;17.25;;;16.35;;
20179;SDS011;10249;48.900;9.090;2022-07-29T11:03:06;15.25;;;14.55;;
20179;SDS011;10249;48.900;9.090;2022-07-29T11:08:23;15.20;;;14.50;;
20179;SDS011;10249;48.900;9.090;2022-07-29T11:10:51;16.83;;;15.93;;
20179;SDS011;10249;48.900;9.090;2022-07-29T11:13:47;15.10;;;14.40;;
20179;SDS011;10249;48.900;9.090;2022-07-29T11:16:16;15.00;;;14.30;;
20179;SDS011;10249;48.900;9.090;2022-07-29T11:21:45;16.77;;;15.32;;
20179;SDS011;10249;48.900;9.090;2022-07-29T11:24:14;16.75;;;15.75;;
20179;SDS011;10249;48.900;9.090;2022-07-29T11:26:42;17.20;;;16.20;;
20179;SDS011;10249;48.900;9.090;2022-07-29T11:29:16;15.10;;;14.40;;
20179;SDS011;10249;48.900;9.090;2022-07-29T11:31:46;17.05;;;16.08;;
20179;SDS011;10249;48.900;9.090;2022-07-29T11:34:20;17.40;;;16.40;;
20179;SDS011;10249;48.900;9.090;2022-07-29T11:39:44;17.05;;;15.85;;
20179;SDS011;10249;48.900;9.090;2022-07-29T11:45:07;15.23;;;14.52;;
20179;SDS011;10249;48.900;9.090;2022-07-29T11:47:35;14.82;;;14.13;;
20179;SDS011;10249;48.900;9.090;2022-07-29T11:50:04;15.68;;;14.98;;
20179;SDS011;10249;48.900;9.090;2022-07-29T11:52:32;15.07;;;14.38;;
20179;SDS011;10249;48.900;9.090;2022-07-29T11:55:03;15.27;;;14.57;;
20179;SDS011;10249;48.900;9.090;2022-07-29T11:57:31;15.00;;;14.30;;
20179;SDS011;10249;48.900;9.090;2022-07-29T11:59:59;14.88;;;14.18;;
20179;SDS011;10249;48.900;9.090;2022-07-29T12:02:39;15.10;;;14.40;;
20179;SDS011;10249;48.900;9.090;2022-07-29T12:05:07;15.70;;;15.00;;
20179;SDS011;10249;48.900;9.090;2022-07-29T12:07:35;15.15;;;14.45;;
20179;SDS011;10249;48.900;9.090;2022-07-29T12:10:03;14.93;;;14.23;;
20179;SDS011;10249;48.900;9.090;2022-07-29T12:12:30;15.05;;;14.35;;
20179;SDS011;10249;48.900;9.090;2022-07-29T12:14:57;15.27;;;14.57;;
20179;SDS011;10249;48.900;9.090;2022-07-29T12:17:27;15.20;;;14.50;;
20179;SDS011;10249;48.900;9.090;2022-07-29T12:19:57;15.10;;;14.40;;
20179;SDS011;10249;48.900;9.090;2022-07-29T12:22:25;17.73;;;16.65;;
20179;SDS011;10249;48.900;9.090;2022-07-29T12:24:53;15.10;;;14.40;;
20179;SDS011;10249;48.900;9.090;2022-07-29T12:27:19;15.20;;;14.50;;
20179;SDS011;10249;48.900;9.090;2022-07-29T12:29:54;15.07;;;14.38;;
20179;SDS011;10249;48.900;9.090;2022-07-29T12:32:22;15.00;;;14.30;;
20179;SDS011;10249;48.900;9.090;2022-07-29T12:34:49;15.57;;;14.88;;
20179;SDS011;10249;48.900;9.090;2022-07-29T12:37:18;15.05;;;14.35;;
20179;SDS011;10249;48.900;9.090;2022-07-29T12:39:45;15.18;;;14.48;;
20179;SDS011;10249;48.900;9.090;2022-07-29T12:42:12;15.40;;;14.70;;
20179;SDS011;10249;48.900;9.090;2022-07-29T12:44:46;15.43;;;14.73;;
20179;SDS011;10249;48.900;9.090;2022-07-29T12:47:13;15.80;;;15.00;;
20179;SDS011;10249;48.900;9.090;2022-07-29T12:49:40;15.48;;;14.77;;
20179;SDS011;10249;48.900;9.090;2022-07-29T12:54:57;15.20;;;14.50;;
20179;SDS011;10249;48.900;9.090;2022-07-29T12:57:26;15.55;;;14.80;;
20179;SDS011;10249;48.900;9.090;2022-07-29T13:00:03;15.60;;;14.80;;
20179;SDS011;10249;48.900;9.090;2022-07-29T13:02:32;15.80;;;15.00;;
20179;SDS011;10249;48.900;9.090;2022-07-29T13:04:59;15.23;;;14.52;;
20179;SDS011;10249;48.900;9.090;2022-07-29T13:07:30;15.40;;;14.70;;
20179;SDS011;10249;48.900;9.090;2022-07-29T13:10:09;14.93;;;14.23;;
20179;SDS011;10249;48.900;9.090;2022-07-29T13:12:38;15.50;;;14.80;;
20179;SDS011;10249;48.900;9.090;2022-07-29T13:15:13;15.55;;;14.85;;
20179;SDS011;10249;48.900;9.090;2022-07-29T13:17:41;15.57;;;14.88;;
20179;SDS011;10249;48.900;9.090;2022-07-29T13:20:09;17.30;;;16.20;;
20179;SDS011;10249;48.900;9.090;2022-07-29T13:22:40;15.27;;;14.57;;
20179;SDS011;10249;48.900;9.090;2022-07-29T13:25:08;15.57;;;14.88;;
20179;SDS011;10249;48.900;9.090;2022-07-29T13:27:36;16.10;;;15.30;;
20179;SDS011;10249;48.900;9.090;2022-07-29T13:30:04;16.38;;;15.55;;
20179;SDS011;10249;48.900;9.090;2022-07-29T13:32:32;15.50;;;14.80;;
20179;SDS011;10249;48.900;9.090;2022-07-29T13:35:02;16.08;;;15.27;;
20179;SDS011;10249;48.900;9.090;2022-07-29T13:37:31;16.00;;;15.20;;
20179;SDS011;10249;48.900;9.090;2022-07-29T13:40:00;16.10;;;15.30;;
20179;SDS011;10249;48.900;9.090;2022-07-29T13:42:29;16.10;;;15.15;;
20179;SDS011;10249;48.900;9.090;2022-07-29T13:44:56;16.90;;;15.80;;
20179;SDS011;10249;48.900;9.090;2022-07-29T13:47:22;15.50;;;14.70;;
20179;SDS011;10249;48.900;9.090;2022-07-29T13:49:49;15.20;;;14.50;;
20179;SDS011;10249;48.900;9.090;2022-07-29T13:52:16;15.43;;;14.73;;
20179;SDS011;10249;48.900;9.090;2022-07-29T13:54:43;14.88;;;14.18;;
20179;SDS011;10249;48.900;9.090;2022-07-29T13:57:11;15.93;;;15.15;;
20179;SDS011;10249;48.900;9.090;2022-07-29T13:59:39;15.60;;;14.90;;
20179;SDS011;10249;48.900;9.090;2022-07-29T14:02:07;15.60;;;14.90;;
20179;SDS011;10249;48.900;9.090;2022-07-29T14:04:34;16.63;;;15.73;;
20179;SDS011;10249;48.900;9.090;2022-07-29T14:07:01;16.42;;;15.52;;
20179;SDS011;10249;48.900;9.090;2022-07-29T14:09:28;15.30;;;14.60;;
20179;SDS011;10249;48.900;9.090;2022-07-29T14:11:55;15.40;;;14.70;;
20179;SDS011;10249;48.900;9.090;2022-07-29T14:14:23;15.30;;;14.60;;
20179;SDS011;10249;48.900;9.090;2022-07-29T14:16:50;15.25;;;14.55;;
20179;SDS011;10249;48.900;9.090;2022-07-29T14:19:17;15.73;;;15.02;;
20179;SDS011;10249;48.900;9.090;2022-07-29T14:21:44;16.10;;;15.30;;
20179;SDS011;10249;48.900;9.090;2022-07-29T14:24:10;14.40;;;13.80;;
20179;SDS011;10249;48.900;9.090;2022-07-29T14:26:37;15.93;;;15.18;;
20179;SDS011;10249;48.900;9.090;2022-07-29T14:29:04;15.18;;;14.48;;
20179;SDS011;10249;48.900;9.090;2022-07-29T14:31:32;15.60;;;14.85;;
20179;SDS011;10249;48.900;9.090;2022-07-29T14:33:58;15.23;;;14.52;;
20179;SDS011;10249;48.900;9.090;2022-07-29T14:36:25;15.52;;;14.73;;
20179;SDS011;10249;48.900;9.090;2022-07-29T14:38:52;15.05;;;14.35;;
20179;SDS011;10249;48.900;9.090;2022-07-29T14:41:19;15.60;;;14.90;;
20179;SDS011;10249;48.900;9.090;2022-07-29T14:43:46;15.93;;;15.13;;
20179;SDS011;10249;48.900;9.090;2022-07-29T14:46:13;15.20;;;14.45;;
20179;SDS011;10249;48.900;9.090;2022-07-29T14:48:41;15.90;;;15.10;;
20179;SDS011;10249;48.900;9.090;2022-07-29T14:51:07;16.05;;;15.25;;
20179;SDS011;10249;48.900;9.090;2022-07-29T14:53:35;17.55;;;16.60;;
20179;SDS011;10249;48.900;9.090;2022-07-29T14:56:02;17.35;;;16.40;;
20179;SDS011;10249;48.900;9.090;2022-07-29T14:58:29;16.77;;;15.93;;
20179;SDS011;10249;48.900;9.090;2022-07-29T15:00:56;16.23;;;15.35;;